Time;durP1;ratioP1;P1;durP2;ratioP2;P2;SDS_P1;SDS_P2;PMS_P1;PMS_P2;Temp;Humidity;BMP_temperature;BMP_pressure;BME280_temperature;BME280_humidity;BME280_pressure;Samples;Min_cycle;Max_cycle;Signal;HPM_P1;HPM_P2
2022/06/26 00:00:55;;;;;;;3.90;3.60;;;19.30;99.90;;;;;;5001988;28;20191;-69
2022/06/26 00:03:20;;;;;;;3.50;3.30;;;19.40;99.90;;;;;;4999627;28;20180;-69
2022/06/26 00:05:46;;;;;;;4.20;3.87;;;19.50;99.90;;;;;;4997910;28;20175;-70
2022/06/26 00:08:12;;;;;;;6.70;4.60;;;19.50;99.90;;;;;;5000389;28;20178;-68
2022/06/26 00:10:38;;;;;;;3.57;3.27;;;19.60;99.90;;;;;;5003351;28;20708;-69
2022/06/26 00:13:04;;;;;;;3.00;2.70;;;19.60;99.90;;;;;;5000338;28;20552;-69
2022/06/26 00:15:29;;;;;;;3.73;3.40;;;19.70;99.90;;;;;;4999867;28;20262;-70
2022/06/26 00:17:55;;;;;;;3.53;3.23;;;19.80;99.90;;;;;;5004165;28;20202;-69
2022/06/26 00:20:21;;;;;;;3.60;3.40;;;19.80;99.90;;;;;;4999036;28;20181;-69
2022/06/26 00:22:46;;;;;;;3.33;3.13;;;19.80;99.90;;;;;;4989576;28;20179;-70
2022/06/26 00:25:12;;;;;;;2.90;2.77;;;19.80;99.90;;;;;;4989680;28;20186;-70
2022/06/26 00:27:38;;;;;;;3.00;2.80;;;19.90;99.90;;;;;;4989779;28;20218;-69
2022/06/26 00:30:04;;;;;;;3.30;3.10;;;20.00;99.90;;;;;;4987315;28;20187;-69
2022/06/26 00:32:29;;;;;;;2.53;2.40;;;20.10;99.90;;;;;;4991284;28;20610;-68
2022/06/26 00:34:55;;;;;;;3.07;2.87;;;20.20;99.90;;;;;;4989179;28;20435;-70
2022/06/26 00:37:20;;;;;;;2.50;2.40;;;20.20;99.90;;;;;;4989582;28;20192;-70
2022/06/26 00:39:46;;;;;;;4.40;2.40;;;20.20;99.90;;;;;;4990065;28;20183;-68
2022/06/26 00:42:11;;;;;;;2.50;2.40;;;20.30;99.90;;;;;;4989612;28;20211;-70
2022/06/26 00:44:37;;;;;;;2.67;2.50;;;20.30;99.90;;;;;;4990273;28;20191;-69
2022/06/26 00:47:02;;;;;;;2.53;2.43;;;20.40;99.90;;;;;;4987496;28;20222;-68
2022/06/26 00:49:28;;;;;;;2.37;2.17;;;20.40;99.90;;;;;;4988819;28;20209;-69
2022/06/26 00:51:55;;;;;;;3.00;2.80;;;20.50;99.90;;;;;;4989956;28;20209;-68
2022/06/26 00:54:23;;;;;;;2.67;2.57;;;20.50;99.90;;;;;;4988404;28;20221;-69
2022/06/26 00:56:49;;;;;;;3.20;2.90;;;20.50;99.90;;;;;;4988625;28;20451;-68
2022/06/26 00:59:15;;;;;;;3.83;2.73;;;20.40;99.90;;;;;;4988065;28;20804;-68
2022/06/26 01:01:41;;;;;;;3.07;2.87;;;20.40;99.90;;;;;;4989372;28;20983;-68
2022/06/26 01:04:07;;;;;;;3.67;3.10;;;20.40;99.90;;;;;;4989268;28;20519;-68
2022/06/26 01:06:34;;;;;;;2.53;2.43;;;20.20;99.90;;;;;;4990292;28;20298;-68
2022/06/26 01:09:00;;;;;;;3.20;2.67;;;20.30;99.90;;;;;;4993922;28;21003;-68
2022/06/26 01:11:26;;;;;;;3.17;2.97;;;20.30;99.90;;;;;;4994329;28;20534;-68
2022/06/26 01:13:54;;;;;;;2.80;2.60;;;20.40;99.90;;;;;;4992868;28;20691;-68
2022/06/26 01:16:21;;;;;;;2.70;2.50;;;20.30;99.90;;;;;;4991486;28;21041;-69
2022/06/26 01:18:49;;;;;;;2.73;2.53;;;20.40;99.90;;;;;;4992075;28;20549;-68
2022/06/26 01:21:16;;;;;;;2.70;2.57;;;20.40;99.90;;;;;;4992291;28;20469;-68
2022/06/26 01:23:42;;;;;;;2.70;2.60;;;20.40;99.90;;;;;;4992826;28;20456;-68
2022/06/26 01:26:08;;;;;;;2.97;2.87;;;20.40;99.90;;;;;;4994567;28;20561;-68
2022/06/26 01:28:34;;;;;;;3.10;2.90;;;20.50;99.90;;;;;;4993358;28;20258;-69
2022/06/26 01:30:59;;;;;;;2.90;2.70;;;20.50;99.90;;;;;;4992136;28;20183;-69
2022/06/26 01:33:25;;;;;;;2.60;2.40;;;20.50;99.90;;;;;;4994387;28;20619;-69
2022/06/26 01:35:50;;;;;;;3.60;3.10;;;20.60;99.90;;;;;;4993199;28;20183;-68
2022/06/26 01:38:21;;;;;;;3.60;3.10;;;20.60;99.90;;;;;;4991948;28;20692;-68
2022/06/26 01:40:48;;;;;;;3.20;3.00;;;20.50;99.90;;;;;;4993184;28;20258;-68
2022/06/26 01:43:17;;;;;;;3.57;3.37;;;20.60;99.90;;;;;;4993285;28;20449;-68
2022/06/26 01:45:44;;;;;;;3.10;2.90;;;20.40;99.90;;;;;;4992817;28;20522;-68
2022/06/26 01:48:10;;;;;;;3.60;3.33;;;20.30;99.90;;;;;;4993024;28;20497;-67
2022/06/26 01:50:36;;;;;;;2.80;2.60;;;20.30;99.90;;;;;;4993065;28;20442;-68
2022/06/26 01:53:01;;;;;;;3.07;2.87;;;20.20;99.90;;;;;;5001163;28;20210;-68
2022/06/26 01:55:27;;;;;;;3.07;2.87;;;20.20;99.90;;;;;;4993541;28;20501;-68
2022/06/26 01:57:52;;;;;;;2.97;2.77;;;20.20;99.90;;;;;;4992430;28;20712;-68
2022/06/26 02:00:18;;;;;;;3.30;3.10;;;20.30;99.90;;;;;;4990771;28;20548;-68
2022/06/26 02:02:43;;;;;;;3.17;2.97;;;20.30;99.90;;;;;;4991441;28;20214;-68
2022/06/26 02:05:09;;;;;;;3.67;3.23;;;20.30;99.90;;;;;;4992365;28;20192;-68
2022/06/26 02:07:34;;;;;;;2.67;2.47;;;20.20;99.90;;;;;;4990582;28;20254;-69
2022/06/26 02:15:28;;;;;;;3.30;3.10;;;20.10;99.90;;;;;;4993041;28;20461;-68
2022/06/26 02:17:54;;;;;;;3.20;3.00;;;20.00;99.90;;;;;;4993638;28;20462;-68
2022/06/26 02:20:20;;;;;;;3.23;2.90;;;19.90;99.90;;;;;;4991640;28;20183;-68
2022/06/26 02:22:46;;;;;;;3.33;3.00;;;19.80;99.90;;;;;;4999617;28;20448;-68
2022/06/26 02:25:11;;;;;;;3.30;3.10;;;19.90;99.90;;;;;;4993130;28;20222;-69
2022/06/26 02:27:37;;;;;;;3.40;3.20;;;19.90;99.90;;;;;;4994310;28;20230;-69
2022/06/26 02:30:03;;;;;;;6.47;3.90;;;19.80;99.90;;;;;;4996257;28;20621;-68
2022/06/26 02:32:28;;;;;;;3.60;3.30;;;19.80;99.90;;;;;;4992177;28;20250;-68
2022/06/26 02:34:53;;;;;;;3.53;3.33;;;19.70;99.90;;;;;;4991353;28;20534;-69
2022/06/26 02:37:19;;;;;;;3.23;2.83;;;19.70;99.90;;;;;;4991046;28;20206;-69
2022/06/26 02:39:45;;;;;;;3.60;3.30;;;19.70;99.90;;;;;;4991997;28;20175;-68
2022/06/26 02:42:10;;;;;;;3.97;3.57;;;19.70;99.90;;;;;;4992387;28;20688;-68
2022/06/26 02:44:36;;;;;;;3.30;3.10;;;19.70;99.90;;;;;;4993071;28;20668;-69
2022/06/26 02:47:01;;;;;;;3.47;3.20;;;19.70;99.90;;;;;;4994594;28;20215;-68
2022/06/26 02:49:27;;;;;;;2.97;2.77;;;19.70;99.90;;;;;;4992219;28;20202;-67
2022/06/26 02:51:52;;;;;;;3.30;3.00;;;19.60;99.90;;;;;;4992383;28;20279;-68
2022/06/26 02:54:18;;;;;;;3.00;2.80;;;19.60;99.90;;;;;;4992906;28;20230;-68
2022/06/26 02:56:44;;;;;;;3.90;3.60;;;19.60;99.90;;;;;;4992391;28;20242;-68
2022/06/26 02:59:09;;;;;;;3.27;3.07;;;19.60;99.90;;;;;;4990245;28;20576;-68
2022/06/26 03:01:35;;;;;;;2.70;2.50;;;19.60;99.90;;;;;;4999153;28;21166;-68
2022/06/26 03:04:00;;;;;;;6.67;5.77;;;19.50;99.90;;;;;;4991313;28;20190;-68
2022/06/26 03:06:26;;;;;;;3.97;3.67;;;19.50;99.90;;;;;;4992129;28;20202;-68
2022/06/26 03:08:51;;;;;;;4.23;3.10;;;19.50;99.90;;;;;;4988290;28;20183;-68
2022/06/26 03:11:17;;;;;;;5.50;3.10;;;19.50;99.90;;;;;;4990906;28;20190;-67
2022/06/26 03:13:42;;;;;;;3.83;3.63;;;19.50;99.90;;;;;;4989337;28;20208;-68
2022/06/26 03:16:08;;;;;;;3.40;3.20;;;19.60;99.90;;;;;;4991311;28;20199;-69
2022/06/26 03:18:33;;;;;;;3.90;3.60;;;19.50;99.90;;;;;;4990577;28;20266;-68
2022/06/26 03:20:59;;;;;;;3.40;3.20;;;19.40;99.90;;;;;;4991389;28;20637;-68
2022/06/26 03:26:09;;;;;;;3.20;3.00;;;19.40;99.90;;;;;;4995217;28;20218;-68
2022/06/26 03:28:34;;;;;;;3.43;3.23;;;19.30;99.90;;;;;;4995744;28;20850;-68
2022/06/26 03:30:59;;;;;;;3.80;3.50;;;19.30;99.90;;;;;;4992961;28;20283;-68
2022/06/26 03:33:25;;;;;;;3.77;3.47;;;19.30;99.90;;;;;;4989679;28;20528;-68
2022/06/26 03:35:50;;;;;;;3.53;3.23;;;19.30;99.90;;;;;;4992631;28;20234;-68
2022/06/26 03:38:16;;;;;;;3.80;3.50;;;19.20;99.90;;;;;;4998588;28;20179;-68
2022/06/26 03:40:41;;;;;;;3.93;3.63;;;19.10;99.90;;;;;;4994072;28;20256;-68
2022/06/26 03:43:11;;;;;;;3.80;3.50;;;19.10;99.90;;;;;;4990787;28;20187;-68
2022/06/26 03:45:38;;;;;;;4.60;4.30;;;19.00;99.90;;;;;;4990167;28;20210;-69
2022/06/26 03:48:03;;;;;;;4.90;3.90;;;19.00;99.90;;;;;;4990645;28;20446;-69
2022/06/26 03:50:29;;;;;;;4.10;3.90;;;19.00;99.90;;;;;;4990518;28;20498;-68
2022/06/26 03:52:54;;;;;;;3.90;3.57;;;19.10;99.90;;;;;;4989850;28;20219;-67
2022/06/26 03:55:20;;;;;;;3.93;3.70;;;19.30;99.90;;;;;;4999860;28;20244;-68
2022/06/26 03:57:46;;;;;;;3.37;3.17;;;19.40;99.90;;;;;;4990580;28;20204;-67
2022/06/26 04:00:11;;;;;;;3.40;3.10;;;19.40;99.90;;;;;;4990809;28;20167;-67
2022/06/26 04:02:37;;;;;;;4.27;3.10;;;19.50;99.90;;;;;;4991269;28;20262;-68
2022/06/26 04:05:04;;;;;;;3.60;3.30;;;19.60;99.90;;;;;;4987677;28;20453;-68
2022/06/26 04:07:30;;;;;;;7.87;3.40;;;19.70;99.90;;;;;;4989239;28;20200;-67
2022/06/26 04:09:56;;;;;;;3.60;3.40;;;19.90;99.90;;;;;;4989115;28;21127;-68
2022/06/26 04:12:21;;;;;;;3.60;3.40;;;19.90;99.90;;;;;;4990685;28;20509;-68
2022/06/26 04:14:47;;;;;;;2.80;2.50;;;19.90;99.90;;;;;;4989917;28;20176;-67
2022/06/26 04:17:16;;;;;;;3.23;3.03;;;19.90;99.90;;;;;;4997951;28;20212;-68
2022/06/26 04:19:42;;;;;;;3.90;3.60;;;19.90;99.90;;;;;;4990997;28;20546;-68
2022/06/26 04:22:07;;;;;;;2.90;2.53;;;19.90;99.90;;;;;;4993068;28;20485;-68
2022/06/26 04:24:33;;;;;;;3.00;2.70;;;19.80;99.90;;;;;;4990432;28;20266;-69
2022/06/26 04:26:59;;;;;;;3.60;3.40;;;19.70;99.90;;;;;;4992812;28;20250;-68
2022/06/26 04:29:24;;;;;;;3.13;3.03;;;19.60;99.90;;;;;;4987429;28;20219;-68
2022/06/26 04:31:50;;;;;;;3.10;2.90;;;19.60;99.90;;;;;;4989260;28;20226;-68
2022/06/26 04:34:15;;;;;;;3.57;3.37;;;19.50;99.90;;;;;;4989251;28;20222;-69
2022/06/26 04:36:41;;;;;;;3.67;3.47;;;19.50;99.90;;;;;;4986758;28;20207;-68
2022/06/26 04:39:07;;;;;;;3.70;3.50;;;19.50;99.90;;;;;;4990010;28;20547;-68
2022/06/26 04:41:34;;;;;;;3.70;3.37;;;19.40;99.90;;;;;;4988656;28;20195;-68
2022/06/26 04:44:02;;;;;;;3.30;3.10;;;19.40;99.90;;;;;;4992919;28;20199;-68
2022/06/26 04:46:27;;;;;;;4.30;4.00;;;19.40;99.90;;;;;;4995918;28;20497;-68
2022/06/26 04:48:53;;;;;;;4.10;3.80;;;19.40;99.90;;;;;;4988496;28;20442;-68
2022/06/26 04:51:18;;;;;;;4.73;3.50;;;19.40;99.90;;;;;;4989985;28;20191;-68
2022/06/26 04:53:45;;;;;;;4.33;3.93;;;19.60;99.90;;;;;;4990706;28;20245;-68
2022/06/26 04:56:11;;;;;;;3.57;3.37;;;19.80;99.90;;;;;;4998482;28;20203;-68
2022/06/26 04:58:36;;;;;;;3.70;3.23;;;19.90;99.90;;;;;;4990595;28;20799;-69
2022/06/26 05:01:02;;;;;;;3.80;3.60;;;20.10;99.90;;;;;;4997248;28;20182;-68
2022/06/26 05:03:28;;;;;;;3.50;3.20;;;20.20;99.90;;;;;;4990298;28;20225;-68
2022/06/26 05:05:54;;;;;;;3.87;3.67;;;20.30;99.90;;;;;;4988721;28;20435;-69
2022/06/26 05:08:19;;;;;;;3.00;2.90;;;20.10;99.90;;;;;;4989151;28;20179;-68
2022/06/26 05:10:45;;;;;;;3.30;3.10;;;20.00;99.90;;;;;;4991269;28;20180;-69
2022/06/26 05:13:11;;;;;;;5.13;3.30;;;20.20;99.90;;;;;;4996143;28;20210;-68
2022/06/26 05:15:36;;;;;;;5.33;3.43;;;20.40;99.90;;;;;;4990167;28;20203;-69
2022/06/26 05:18:02;;;;;;;3.77;3.57;;;20.50;99.90;;;;;;4993989;28;20215;-69
2022/06/26 05:20:27;;;;;;;2.97;2.77;;;20.60;99.90;;;;;;4990417;28;20208;-68
2022/06/26 05:22:53;;;;;;;3.60;3.40;;;20.70;99.90;;;;;;4992859;28;20194;-69
2022/06/26 05:25:18;;;;;;;3.40;3.20;;;20.70;99.90;;;;;;4993038;28;20183;-68
2022/06/26 05:27:44;;;;;;;5.60;4.70;;;20.60;99.90;;;;;;4989163;28;20199;-69
2022/06/26 05:30:10;;;;;;;4.67;4.27;;;20.50;99.90;;;;;;4991078;28;20186;-69
2022/06/26 05:32:36;;;;;;;4.40;3.80;;;20.40;99.90;;;;;;4990117;28;20290;-68
2022/06/26 05:35:02;;;;;;;3.70;3.40;;;20.40;99.90;;;;;;4987802;28;20517;-69
2022/06/26 05:37:27;;;;;;;3.37;3.07;;;20.40;99.90;;;;;;4989745;28;20294;-68
2022/06/26 05:39:53;;;;;;;3.97;3.77;;;20.60;99.90;;;;;;4988068;28;20442;-68
2022/06/26 05:42:18;;;;;;;3.93;3.60;;;20.60;99.90;;;;;;4990659;28;20187;-68
2022/06/26 05:44:43;;;;;;;3.73;3.43;;;20.80;99.90;;;;;;4989922;28;20199;-68
2022/06/26 05:47:09;;;;;;;3.77;3.47;;;20.90;99.90;;;;;;4990485;28;20708;-68
2022/06/26 05:49:34;;;;;;;3.73;3.43;;;20.90;99.90;;;;;;4996206;28;20187;-68
2022/06/26 05:52:00;;;;;;;5.37;3.60;;;20.90;99.90;;;;;;4990995;28;20184;-69
2022/06/26 05:54:26;;;;;;;3.60;3.40;;;20.90;99.90;;;;;;4994294;28;20182;-68
2022/06/26 05:56:52;;;;;;;3.97;3.63;;;21.00;99.90;;;;;;4995114;28;20199;-68
2022/06/26 05:59:17;;;;;;;3.60;3.27;;;21.30;99.90;;;;;;4994383;28;20432;-68
2022/06/26 06:01:43;;;;;;;3.47;3.20;;;21.60;99.90;;;;;;4994005;28;20194;-69
2022/06/26 06:04:08;;;;;;;3.67;3.47;;;22.00;99.90;;;;;;5001245;28;20684;-68
2022/06/26 06:06:34;;;;;;;3.10;2.90;;;22.30;99.90;;;;;;4991304;28;20206;-68
2022/06/26 06:09:00;;;;;;;3.70;3.40;;;22.50;99.90;;;;;;4993293;28;20220;-69
2022/06/26 06:11:26;;;;;;;3.13;2.93;;;22.60;99.90;;;;;;4992220;28;20637;-68
2022/06/26 06:13:51;;;;;;;2.73;2.63;;;22.70;99.90;;;;;;4992065;28;20625;-69
2022/06/26 06:16:17;;;;;;;3.50;3.20;;;22.90;99.90;;;;;;4992100;28;20665;-69
2022/06/26 06:18:43;;;;;;;3.13;2.83;;;23.00;99.90;;;;;;4991645;28;20575;-68
2022/06/26 06:21:08;;;;;;;3.80;3.50;;;23.20;99.90;;;;;;4993023;28;20446;-69
2022/06/26 06:23:34;;;;;;;3.00;2.80;;;23.40;99.90;;;;;;4993483;28;20183;-69
2022/06/26 06:26:00;;;;;;;2.90;2.47;;;23.60;99.90;;;;;;4991246;28;20270;-69
2022/06/26 06:28:25;;;;;;;2.20;2.10;;;23.80;99.90;;;;;;4991163;28;20186;-69
2022/06/26 06:30:51;;;;;;;2.10;2.00;;;23.90;99.90;;;;;;5000613;28;20190;-69
2022/06/26 06:33:17;;;;;;;1.63;1.53;;;24.10;99.90;;;;;;4991928;28;20624;-68
2022/06/26 06:35:42;;;;;;;2.10;2.00;;;24.20;99.90;;;;;;4988992;28;20175;-69
2022/06/26 06:38:08;;;;;;;1.40;1.30;;;24.30;99.90;;;;;;4991505;28;20676;-69
2022/06/26 06:40:34;;;;;;;2.40;1.30;;;24.30;99.90;;;;;;4990293;28;20184;-69
2022/06/26 06:43:00;;;;;;;1.63;1.53;;;24.00;99.90;;;;;;4992477;28;20445;-69
2022/06/26 06:45:26;;;;;;;1.77;1.67;;;23.90;99.90;;;;;;5005431;28;20175;-68
2022/06/26 06:47:51;;;;;;;1.50;1.40;;;23.80;99.90;;;;;;4994074;28;20219;-68
2022/06/26 06:50:17;;;;;;;2.50;1.63;;;23.70;99.90;;;;;;4991179;28;20749;-68
2022/06/26 06:52:42;;;;;;;1.67;1.57;;;23.80;99.90;;;;;;4990849;28;20211;-69
2022/06/26 06:55:08;;;;;;;2.90;2.70;;;24.00;99.90;;;;;;4994189;28;20182;-69
2022/06/26 06:57:34;;;;;;;2.13;2.03;;;24.10;99.90;;;;;;4992521;28;20202;-69
2022/06/26 06:59:59;;;;;;;1.70;1.60;;;24.40;99.90;;;;;;4993134;28;20423;-69
2022/06/26 07:02:25;;;;;;;1.80;1.70;;;24.50;99.90;;;;;;4994073;28;20203;-69
2022/06/26 07:04:51;;;;;;;1.77;1.67;;;24.70;99.90;;;;;;4990378;28;20194;-69
2022/06/26 07:07:16;;;;;;;1.90;1.80;;;25.10;99.90;;;;;;4992181;28;20222;-69
2022/06/26 07:09:42;;;;;;;1.70;1.60;;;25.20;99.90;;;;;;4992371;28;20266;-69
2022/06/26 07:12:07;;;;;;;1.50;1.40;;;25.40;99.90;;;;;;4992070;28;20186;-68
2022/06/26 07:14:33;;;;;;;1.80;1.70;;;25.50;99.40;;;;;;4993898;28;20238;-70
2022/06/26 07:16:59;;;;;;;2.13;2.03;;;25.70;99.10;;;;;;4992141;28;20203;-69
2022/06/26 07:19:24;;;;;;;1.70;1.60;;;25.70;98.50;;;;;;4992172;28;20598;-69
2022/06/26 07:21:49;;;;;;;1.97;1.77;;;25.90;98.80;;;;;;4991097;28;20226;-70
2022/06/26 07:24:15;;;;;;;2.80;1.70;;;26.10;99.10;;;;;;4993539;28;20175;-69
2022/06/26 07:26:41;;;;;;;1.90;1.77;;;26.40;98.30;;;;;;4993552;28;20191;-69
2022/06/26 07:29:10;;;;;;;2.27;2.00;;;26.30;97.50;;;;;;4992576;28;20176;-69
2022/06/26 07:31:35;;;;;;;2.17;1.63;;;26.20;97.60;;;;;;4999245;28;20199;-69
2022/06/26 07:34:13;;;;;;;1.70;1.60;;;26.30;97.20;;;;;;5003726;28;20971;-69
2022/06/26 07:36:40;;;;;;;1.70;1.60;;;26.30;97.50;;;;;;5004035;28;20459;-68
2022/06/26 07:39:06;;;;;;;1.50;1.40;;;26.50;96.80;;;;;;5003272;28;20491;-69
2022/06/26 07:41:31;;;;;;;1.87;1.77;;;26.60;96.60;;;;;;5002770;28;20446;-69
2022/06/26 07:43:57;;;;;;;1.93;1.83;;;26.60;96.40;;;;;;5001874;28;20192;-70
2022/06/26 07:46:23;;;;;;;2.20;2.00;;;26.80;96.70;;;;;;5004687;28;20214;-70
2022/06/26 07:48:49;;;;;;;1.87;1.77;;;26.90;96.10;;;;;;5008450;28;20449;-69
2022/06/26 07:51:14;;;;;;;2.20;2.10;;;27.20;96.30;;;;;;4994875;28;20222;-69
2022/06/26 07:53:40;;;;;;;2.33;1.83;;;27.30;95.30;;;;;;4993305;28;20211;-69
2022/06/26 07:56:06;;;;;;;2.37;2.17;;;27.20;95.30;;;;;;4998350;28;20203;-70
2022/06/26 07:58:31;;;;;;;2.10;2.00;;;27.40;94.90;;;;;;5002965;28;20179;-69
2022/06/26 08:00:57;;;;;;;2.03;1.93;;;27.40;94.70;;;;;;5002748;28;20183;-69
2022/06/26 08:03:23;;;;;;;2.50;2.30;;;27.30;95.30;;;;;;4997081;28;20668;-69
2022/06/26 08:05:48;;;;;;;2.30;2.10;;;27.50;94.90;;;;;;4994750;28;20219;-70
2022/06/26 08:08:14;;;;;;;2.20;2.10;;;27.70;94.40;;;;;;4998962;28;20895;-69
2022/06/26 08:10:39;;;;;;;3.27;3.03;;;27.50;94.50;;;;;;4997202;28;20185;-69
2022/06/26 08:13:06;;;;;;;4.40;3.43;;;27.60;94.90;;;;;;5002957;28;20206;-69
2022/06/26 08:15:32;;;;;;;2.10;2.00;;;27.80;93.90;;;;;;4999653;28;20207;-69
2022/06/26 08:17:58;;;;;;;1.63;1.53;;;27.80;93.40;;;;;;4994844;28;20881;-70
2022/06/26 08:20:23;;;;;;;2.00;1.90;;;27.90;93.80;;;;;;5000615;28;20198;-69
2022/06/26 08:22:49;;;;;;;1.93;1.83;;;28.00;93.20;;;;;;4999947;28;20171;-70
2022/06/26 08:25:15;;;;;;;1.93;1.83;;;28.00;93.00;;;;;;4999048;28;20182;-69
2022/06/26 08:27:41;;;;;;;2.70;2.37;;;28.10;92.40;;;;;;5001223;28;20195;-69
2022/06/26 08:30:09;;;;;;;2.00;1.90;;;28.30;92.40;;;;;;4988449;28;20266;-70
2022/06/26 08:32:35;;;;;;;3.00;2.60;;;28.30;91.70;;;;;;4992277;28;20474;-69
2022/06/26 08:35:02;;;;;;;2.03;1.80;;;28.50;91.50;;;;;;4992316;28;20459;-69
2022/06/26 08:37:27;;;;;;;1.93;1.83;;;28.70;90.70;;;;;;4993994;28;20467;-67
2022/06/26 08:39:53;;;;;;;2.27;2.13;;;28.00;90.90;;;;;;4998623;28;20426;-67
2022/06/26 08:42:20;;;;;;;2.00;1.90;;;28.20;91.30;;;;;;5003399;28;20232;-67
2022/06/26 08:44:46;;;;;;;3.63;1.87;;;28.40;91.60;;;;;;4993773;28;20213;-67
2022/06/26 08:47:13;;;;;;;1.97;1.87;;;28.70;91.20;;;;;;5002494;28;20473;-67
2022/06/26 08:49:40;;;;;;;1.87;1.77;;;28.60;91.20;;;;;;5002094;28;20565;-67
2022/06/26 08:52:09;;;;;;;3.40;1.93;;;28.90;90.80;;;;;;5000636;28;20548;-67
2022/06/26 08:54:35;;;;;;;2.17;1.93;;;29.00;90.50;;;;;;5002604;28;20784;-67
2022/06/26 08:57:01;;;;;;;1.90;1.70;;;29.50;90.00;;;;;;5000913;28;20469;-67
2022/06/26 08:59:27;;;;;;;1.83;1.73;;;29.60;88.70;;;;;;5002128;28;20175;-67
2022/06/26 09:01:53;;;;;;;2.20;2.10;;;29.60;88.90;;;;;;5002084;28;20437;-68
2022/06/26 09:04:18;;;;;;;2.03;1.93;;;30.10;87.60;;;;;;4998279;28;20172;-67
2022/06/26 09:06:44;;;;;;;3.53;3.23;;;30.40;86.80;;;;;;4998518;28;20195;-68
2022/06/26 09:09:13;;;;;;;2.10;1.77;;;30.60;85.90;;;;;;4994870;28;20223;-68
2022/06/26 09:11:39;;;;;;;2.27;2.17;;;30.50;85.20;;;;;;4998713;28;20806;-67
2022/06/26 09:14:05;;;;;;;1.70;1.60;;;30.30;85.20;;;;;;5001041;28;20470;-67
2022/06/26 09:16:32;;;;;;;1.80;1.70;;;30.10;85.80;;;;;;5001674;28;20560;-68
2022/06/26 09:19:09;;;;;;;1.93;1.73;;;30.20;85.40;;;;;;4999396;28;20258;-68
2022/06/26 09:21:35;;;;;;;1.93;1.73;;;30.30;85.50;;;;;;4993378;28;20427;-67
2022/06/26 09:24:01;;;;;;;4.30;1.90;;;30.30;85.00;;;;;;4988222;28;20967;-67
2022/06/26 09:26:26;;;;;;;2.30;1.97;;;30.60;83.90;;;;;;4986236;28;20638;-66
2022/06/26 09:28:52;;;;;;;2.50;1.73;;;30.90;82.80;;;;;;4989351;28;20208;-67
2022/06/26 09:31:20;;;;;;;2.23;2.03;;;31.20;81.20;;;;;;4993829;28;20230;-67
2022/06/26 09:33:46;;;;;;;2.30;2.20;;;31.30;80.10;;;;;;4995195;28;20493;-66
2022/06/26 09:36:15;;;;;;;2.00;1.90;;;31.10;81.80;;;;;;5000088;28;20500;-66
2022/06/26 09:38:49;;;;;;;1.97;1.87;;;31.10;81.10;;;;;;4994792;28;20182;-67
2022/06/26 09:41:15;;;;;;;1.70;1.60;;;31.20;79.20;;;;;;4993203;28;20520;-67
2022/06/26 09:43:44;;;;;;;2.03;1.93;;;31.60;78.40;;;;;;4998516;28;20437;-67
2022/06/26 09:46:14;;;;;;;1.80;1.70;;;32.30;77.70;;;;;;4996716;28;20472;-67
2022/06/26 09:48:41;;;;;;;1.50;1.40;;;32.70;75.00;;;;;;4993447;28;21002;-67
2022/06/26 09:51:12;;;;;;;2.13;2.03;;;33.50;72.60;;;;;;5000515;28;20800;-67
2022/06/26 09:53:38;;;;;;;3.00;2.23;;;33.30;71.20;;;;;;4994460;28;20581;-67
2022/06/26 09:56:07;;;;;;;2.00;1.90;;;32.80;71.50;;;;;;4996137;28;20516;-67
2022/06/26 09:58:33;;;;;;;1.90;1.80;;;32.80;72.90;;;;;;4996367;28;20441;-67
2022/06/26 10:06:32;;;;;;;2.00;1.90;;;33.50;69.10;;;;;;4989930;28;20477;-67
2022/06/26 10:09:03;;;;;;;2.30;2.20;;;33.30;69.10;;;;;;4999241;28;20928;-67
2022/06/26 10:11:31;;;;;;;1.97;1.87;;;33.00;69.00;;;;;;4994652;28;20442;-69
2022/06/26 10:14:12;;;;;;;2.00;1.80;;;33.00;69.90;;;;;;4993957;28;20553;-67
2022/06/26 10:16:56;;;;;;;2.03;1.93;;;33.40;69.10;;;;;;4991746;28;20553;-67
2022/06/26 10:19:47;;;;;;;1.70;1.60;;;34.20;67.40;;;;;;5001952;28;20437;-66
2022/06/26 10:22:14;;;;;;;1.90;1.80;;;34.50;65.70;;;;;;4991443;28;20439;-66
2022/06/26 10:24:56;;;;;;;2.23;1.93;;;35.10;65.10;;;;;;5001045;28;20447;-66
2022/06/26 10:27:27;;;;;;;2.67;2.10;;;35.30;62.50;;;;;;4986397;28;20453;-66
2022/06/26 10:30:11;;;;;;;2.00;1.90;;;35.90;62.30;;;;;;4991708;28;20472;-67
2022/06/26 10:32:37;;;;;;;1.80;1.70;;;36.00;60.10;;;;;;4999905;28;21041;-67
2022/06/26 10:35:04;;;;;;;2.00;1.80;;;36.30;59.00;;;;;;5002882;28;20447;-67
2022/06/26 10:37:41;;;;;;;1.50;1.50;;;36.30;59.70;;;;;;5000324;28;20462;-67
2022/06/26 10:43:08;;;;;;;2.03;1.93;;;36.90;57.50;;;;;;5002977;28;20461;-66
2022/06/26 10:45:39;;;;;;;1.83;1.73;;;37.00;57.00;;;;;;5005181;28;20437;-66
2022/06/26 10:48:07;;;;;;;1.77;1.67;;;37.80;56.20;;;;;;4997885;28;20810;-66
2022/06/26 10:50:41;;;;;;;2.00;1.90;;;38.30;55.00;;;;;;5001695;28;20588;-67
2022/06/26 10:53:21;;;;;;;1.60;1.50;;;39.00;53.70;;;;;;4992537;28;20478;-66
2022/06/26 10:55:51;;;;;;;2.20;2.10;;;39.30;51.90;;;;;;4991421;28;20442;-66
2022/06/26 10:58:27;;;;;;;2.17;2.07;;;38.70;50.70;;;;;;4989638;28;20453;-65
2022/06/26 11:00:56;;;;;;;1.90;1.80;;;38.80;50.50;;;;;;4993539;28;20488;-68
2022/06/26 11:03:22;;;;;;;2.00;1.90;;;38.30;51.20;;;;;;4998505;28;20435;-66
2022/06/26 11:05:53;;;;;;;1.90;1.80;;;37.80;51.60;;;;;;4993065;28;20782;-67
2022/06/26 11:08:30;;;;;;;2.03;1.93;;;36.90;52.00;;;;;;4992625;28;20529;-67
2022/06/26 11:10:59;;;;;;;1.80;1.70;;;36.10;52.30;;;;;;4987628;28;20438;-66
2022/06/26 11:13:25;;;;;;;2.33;2.23;;;34.70;54.10;;;;;;4993022;28;20474;-66
2022/06/26 11:15:50;;;;;;;2.17;1.97;;;33.90;55.20;;;;;;4996272;28;20480;-66
2022/06/26 11:18:16;;;;;;;2.47;2.37;;;33.80;56.00;;;;;;5006041;28;20642;-67
2022/06/26 11:20:46;;;;;;;1.80;1.70;;;33.60;56.70;;;;;;5003795;28;20258;-66
2022/06/26 11:23:27;;;;;;;1.87;1.77;;;33.90;56.80;;;;;;4993876;28;20187;-66
2022/06/26 11:26:04;;;;;;;2.20;1.87;;;34.20;56.20;;;;;;4991039;28;20452;-66
2022/06/26 11:28:32;;;;;;;1.83;1.73;;;34.20;56.20;;;;;;4993170;28;20890;-66
2022/06/26 11:30:58;;;;;;;2.20;2.10;;;34.80;55.00;;;;;;4996817;28;20455;-66
2022/06/26 11:33:27;;;;;;;2.00;1.90;;;35.00;54.70;;;;;;4992431;28;20462;-66
2022/06/26 11:35:53;;;;;;;2.20;2.10;;;35.30;54.60;;;;;;4998916;28;20474;-66
2022/06/26 11:38:20;;;;;;;1.80;1.70;;;35.40;54.40;;;;;;4989468;28;20481;-66
2022/06/26 11:40:47;;;;;;;2.03;1.93;;;35.30;54.40;;;;;;4999197;28;20508;-66
2022/06/26 11:43:14;;;;;;;1.97;1.87;;;35.90;54.00;;;;;;5000847;28;20457;-66
2022/06/26 11:45:40;;;;;;;2.57;1.63;;;36.00;53.40;;;;;;4994581;28;20474;-66
2022/06/26 11:48:17;;;;;;;1.67;1.57;;;36.70;53.10;;;;;;4980622;28;20466;-66
2022/06/26 11:50:49;;;;;;;1.87;1.77;;;37.40;51.30;;;;;;4991395;28;20951;-66
2022/06/26 11:53:26;;;;;;;2.17;2.07;;;37.10;51.10;;;;;;4998430;28;20466;-66
2022/06/26 11:55:57;;;;;;;2.00;1.90;;;37.00;51.90;;;;;;5000539;28;20517;-66
2022/06/26 11:58:27;;;;;;;1.67;1.57;;;37.50;50.50;;;;;;4984956;28;20556;-66
2022/06/26 12:01:08;;;;;;;1.83;1.73;;;39.80;48.90;;;;;;4993602;28;20458;-65
2022/06/26 12:03:46;;;;;;;1.40;1.40;;;40.50;47.50;;;;;;4988826;28;20486;-68
2022/06/26 12:06:13;;;;;;;1.60;1.57;;;41.90;45.20;;;;;;4989887;28;20477;-67
2022/06/26 12:08:38;;;;;;;1.93;1.83;;;42.40;44.10;;;;;;4984792;28;20453;-67
2022/06/26 12:11:04;;;;;;;1.67;1.57;;;41.80;44.00;;;;;;4991368;28;20442;-67
2022/06/26 12:13:32;;;;;;;2.10;2.00;;;42.40;43.20;;;;;;4990576;28;20278;-67
2022/06/26 12:16:08;;;;;;;1.53;1.43;;;42.90;42.90;;;;;;4999505;28;20203;-66
2022/06/26 12:18:35;;;;;;;1.93;1.83;;;43.40;41.70;;;;;;5002658;28;20445;-69
2022/06/26 12:21:01;;;;;;;1.97;1.80;;;43.90;40.50;;;;;;4982987;28;20441;-65
2022/06/26 12:23:35;;;;;;;2.20;2.10;;;44.40;39.90;;;;;;4999086;28;20453;-65
2022/06/26 12:26:09;;;;;;;1.60;1.60;;;44.00;40.00;;;;;;4997101;28;20203;-65
2022/06/26 12:28:43;;;;;;;1.90;1.80;;;43.80;39.80;;;;;;5002750;28;20860;-64
2022/06/26 12:31:09;;;;;;;22.07;21.07;;;44.20;45.70;;;;;;5000245;28;20442;-65
2022/06/26 12:33:35;;;;;;;4.90;4.70;;;44.30;45.80;;;;;;4999069;28;20466;-67
2022/06/26 12:36:00;;;;;;;1.87;1.77;;;43.80;45.10;;;;;;4997778;28;20462;-67
2022/06/26 12:38:27;;;;;;;3.73;3.53;;;43.90;44.50;;;;;;5002387;28;20186;-68
2022/06/26 12:40:54;;;;;;;7.53;7.03;;;44.20;45.30;;;;;;5000371;28;20190;-69
2022/06/26 12:43:20;;;;;;;45.10;41.33;;;44.00;45.30;;;;;;5004760;28;20435;-67
2022/06/26 12:45:45;;;;;;;4.33;4.03;;;43.50;45.20;;;;;;5005535;28;20423;-72
2022/06/26 12:48:11;;;;;;;3.97;2.87;;;43.90;44.60;;;;;;4992559;28;20560;-68
2022/06/26 12:50:37;;;;;;;3.20;2.87;;;43.80;44.70;;;;;;4992436;28;20199;-67
2022/06/26 12:53:02;;;;;;;3.90;3.60;;;43.90;44.40;;;;;;4992358;28;20207;-67
2022/06/26 12:55:28;;;;;;;1.93;1.83;;;44.00;43.80;;;;;;4991666;28;20179;-68
2022/06/26 12:57:54;;;;;;;2.23;2.13;;;43.70;43.90;;;;;;4992300;28;20249;-68
2022/06/26 13:00:19;;;;;;;2.30;2.10;;;44.50;43.10;;;;;;4991841;28;20924;-68